sensor_id;sensor_type;location;lat;lon;timestamp;pressure;altitude;pressure_sealevel;temperature;humidity
58875;BME280;44652;49.040;12.126;2024-03-07T07:38:16;97944.38;;;2.62;94.65
58875;BME280;44652;49.040;12.126;2024-03-07T07:40:43;97946.63;;;2.71;95.20
58875;BME280;44652;49.040;12.126;2024-03-07T07:43:11;97939.78;;;2.58;95.84
58875;BME280;44652;49.040;12.126;2024-03-07T07:45:54;97957.22;;;2.74;94.69
58875;BME280;44652;49.040;12.126;2024-03-07T07:48:21;97942.31;;;2.71;94.94
58875;BME280;44652;49.040;12.126;2024-03-07T07:50:49;97949.44;;;2.60;95.18
58875;BME280;44652;49.040;12.126;2024-03-07T07:53:18;97957.31;;;2.75;95.46
58875;BME280;44652;49.040;12.126;2024-03-07T07:55:45;97937.94;;;2.70;95.80
58875;BME280;44652;49.040;12.126;2024-03-07T07:58:13;97960.53;;;2.71;96.32
58875;BME280;44652;49.040;12.126;2024-03-07T08:00:40;97945.00;;;2.73;98.10
58875;BME280;44652;49.040;12.126;2024-03-07T08:03:10;97951.88;;;2.85;97.62
58875;BME280;44652;49.040;12.126;2024-03-07T08:05:37;97961.09;;;2.80;98.01
58875;BME280;44652;49.040;12.126;2024-03-07T08:08:06;97921.88;;;2.77;98.23
58875;BME280;44652;49.040;12.126;2024-03-07T08:10:35;97950.66;;;3.08;97.55
58875;BME280;44652;49.040;12.126;2024-03-07T08:13:03;97948.34;;;3.28;96.24
58875;BME280;44652;49.040;12.126;2024-03-07T08:15:33;97943.50;;;3.19;97.41
58875;BME280;44652;49.040;12.126;2024-03-07T08:18:00;97934.50;;;3.14;97.82
58875;BME280;44652;49.040;12.126;2024-03-07T08:20:28;97940.63;;;3.44;97.55
58875;BME280;44652;49.040;12.126;2024-03-07T08:22:56;97944.59;;;3.52;98.03
58875;BME280;44652;49.040;12.126;2024-03-07T08:25:25;97944.06;;;3.58;98.64
58875;BME280;44652;49.040;12.126;2024-03-07T08:27:56;97921.75;;;3.48;99.03
58875;BME280;44652;49.040;12.126;2024-03-07T08:30:25;97944.50;;;3.65;99.20
58875;BME280;44652;49.040;12.126;2024-03-07T08:32:55;97934.00;;;3.64;98.83
58875;BME280;44652;49.040;12.126;2024-03-07T08:35:22;97934.91;;;3.64;98.40
58875;BME280;44652;49.040;12.126;2024-03-07T08:37:51;97937.19;;;3.89;98.41
58875;BME280;44652;49.040;12.126;2024-03-07T08:40:23;97921.94;;;3.81;97.32
58875;BME280;44652;49.040;12.126;2024-03-07T08:42:55;97934.22;;;3.98;97.77
58875;BME280;44652;49.040;12.126;2024-03-07T08:45:23;97938.81;;;4.02;96.63
58875;BME280;44652;49.040;12.126;2024-03-07T08:47:51;97911.78;;;3.71;97.21
58875;BME280;44652;49.040;12.126;2024-03-07T08:50:18;97915.75;;;3.64;98.25
58875;BME280;44652;49.040;12.126;2024-03-07T08:52:46;97925.56;;;3.68;97.54
58875;BME280;44652;49.040;12.126;2024-03-07T08:55:16;97936.69;;;3.65;98.02
58875;BME280;44652;49.040;12.126;2024-03-07T08:57:43;97917.88;;;3.71;97.23
58875;BME280;44652;49.040;12.126;2024-03-07T09:00:13;97935.66;;;3.93;96.95
58875;BME280;44652;49.040;12.126;2024-03-07T09:02:51;97914.50;;;3.72;96.38
58875;BME280;44652;49.040;12.126;2024-03-07T09:05:22;97911.78;;;3.71;97.14
58875;BME280;44652;49.040;12.126;2024-03-07T09:07:51;97917.16;;;3.74;96.23
58875;BME280;44652;49.040;12.126;2024-03-07T09:10:19;97949.00;;;3.83;96.52
58875;BME280;44652;49.040;12.126;2024-03-07T09:12:47;97937.16;;;4.04;96.50
58875;BME280;44652;49.040;12.126;2024-03-07T09:15:16;97947.16;;;4.28;94.96
58875;BME280;44652;49.040;12.126;2024-03-07T09:17:44;97941.06;;;4.27;94.90
58875;BME280;44652;49.040;12.126;2024-03-07T09:20:11;97937.94;;;3.87;94.93
58875;BME280;44652;49.040;12.126;2024-03-07T09:22:42;97919.13;;;3.78;95.70
58875;BME280;44652;49.040;12.126;2024-03-07T09:25:10;97917.63;;;3.66;96.17
58875;BME280;44652;49.040;12.126;2024-03-07T09:27:37;97926.25;;;3.80;95.91
58875;BME280;44652;49.040;12.126;2024-03-07T09:30:05;97916.06;;;3.85;95.23
58875;BME280;44652;49.040;12.126;2024-03-07T09:32:35;97927.13;;;3.96;95.11
58875;BME280;44652;49.040;12.126;2024-03-07T09:35:04;97906.03;;;3.61;95.19
58875;BME280;44652;49.040;12.126;2024-03-07T09:37:33;97932.41;;;3.97;95.06
58875;BME280;44652;49.040;12.126;2024-03-07T09:40:00;97905.13;;;3.90;93.92
58875;BME280;44652;49.040;12.126;2024-03-07T09:42:27;97919.69;;;4.18;93.89
58875;BME280;44652;49.040;12.126;2024-03-07T09:44:54;97920.88;;;4.08;93.15
58875;BME280;44652;49.040;12.126;2024-03-07T09:47:23;97918.66;;;4.00;93.58
58875;BME280;44652;49.040;12.126;2024-03-07T09:49:50;97900.44;;;3.70;92.97
58875;BME280;44652;49.040;12.126;2024-03-07T09:52:18;97926.69;;;4.19;92.70
58875;BME280;44652;49.040;12.126;2024-03-07T09:54:47;97922.47;;;4.21;91.36
58875;BME280;44652;49.040;12.126;2024-03-07T09:57:13;97920.25;;;3.98;91.68
58875;BME280;44652;49.040;12.126;2024-03-07T09:59:42;97905.06;;;4.05;91.31
58875;BME280;44652;49.040;12.126;2024-03-07T10:02:13;97908.84;;;4.10;91.12
58875;BME280;44652;49.040;12.126;2024-03-07T10:04:48;97922.44;;;4.36;90.15
58875;BME280;44652;49.040;12.126;2024-03-07T10:07:15;97927.38;;;4.31;88.83
58875;BME280;44652;49.040;12.126;2024-03-07T10:09:43;97925.53;;;4.61;88.61
58875;BME280;44652;49.040;12.126;2024-03-07T10:12:11;97919.34;;;4.59;87.94
58875;BME280;44652;49.040;12.126;2024-03-07T10:14:49;97928.63;;;4.54;87.75
58875;BME280;44652;49.040;12.126;2024-03-07T10:17:18;97908.75;;;4.73;87.32
58875;BME280;44652;49.040;12.126;2024-03-07T10:19:48;97926.03;;;5.03;85.93
58875;BME280;44652;49.040;12.126;2024-03-07T10:22:17;97909.31;;;5.16;84.68
58875;BME280;44652;49.040;12.126;2024-03-07T10:24:52;97886.25;;;5.25;83.98
58875;BME280;44652;49.040;12.126;2024-03-07T10:27:22;97896.75;;;5.43;82.01
58875;BME280;44652;49.040;12.126;2024-03-07T10:29:52;97887.03;;;5.41;81.81
58875;BME280;44652;49.040;12.126;2024-03-07T10:32:23;97916.22;;;5.32;81.38
58875;BME280;44652;49.040;12.126;2024-03-07T10:34:50;97920.22;;;5.59;79.92
58875;BME280;44652;49.040;12.126;2024-03-07T10:37:18;97897.28;;;5.54;78.82
58875;BME280;44652;49.040;12.126;2024-03-07T10:39:47;97906.41;;;5.62;80.43
58875;BME280;44652;49.040;12.126;2024-03-07T10:42:18;97888.69;;;5.56;79.02
58875;BME280;44652;49.040;12.126;2024-03-07T10:44:48;97857.19;;;5.53;78.20
58875;BME280;44652;49.040;12.126;2024-03-07T10:47:17;97900.06;;;5.57;78.05
58875;BME280;44652;49.040;12.126;2024-03-07T10:55:56;97896.34;;;6.23;75.26
58875;BME280;44652;49.040;12.126;2024-03-07T11:01:31;97867.72;;;6.26;74.87
58875;BME280;44652;49.040;12.126;2024-03-07T11:04:01;97895.66;;;6.09;75.49
58875;BME280;44652;49.040;12.126;2024-03-07T11:06:32;97892.00;;;6.61;74.54
58875;BME280;44652;49.040;12.126;2024-03-07T11:09:03;97894.47;;;6.77;74.31
58875;BME280;44652;49.040;12.126;2024-03-07T11:11:39;97856.09;;;7.59;72.93
58875;BME280;44652;49.040;12.126;2024-03-07T11:14:11;97868.75;;;7.90;68.61
58875;BME280;44652;49.040;12.126;2024-03-07T11:16:40;97853.38;;;8.21;67.68
58875;BME280;44652;49.040;12.126;2024-03-07T11:19:28;97876.22;;;8.24;66.03
58875;BME280;44652;49.040;12.126;2024-03-07T11:22:03;97872.41;;;8.16;66.08
58875;BME280;44652;49.040;12.126;2024-03-07T11:24:42;97877.66;;;7.51;66.52
58875;BME280;44652;49.040;12.126;2024-03-07T11:27:10;97853.97;;;7.29;68.83
58875;BME280;44652;49.040;12.126;2024-03-07T11:29:41;97872.34;;;7.71;68.43
58875;BME280;44652;49.040;12.126;2024-03-07T11:32:12;97867.88;;;7.47;68.81
58875;BME280;44652;49.040;12.126;2024-03-07T11:34:44;97867.03;;;7.27;69.32
58875;BME280;44652;49.040;12.126;2024-03-07T11:37:18;97838.38;;;7.32;68.68
58875;BME280;44652;49.040;12.126;2024-03-07T11:39:46;97859.59;;;7.17;69.13
58875;BME280;44652;49.040;12.126;2024-03-07T11:42:23;97841.97;;;6.94;68.64
58875;BME280;44652;49.040;12.126;2024-03-07T11:44:57;97840.06;;;7.11;69.58
58875;BME280;44652;49.040;12.126;2024-03-07T11:47:26;97830.75;;;7.38;69.42
58875;BME280;44652;49.040;12.126;2024-03-07T11:50:03;97846.53;;;7.19;69.75
58875;BME280;44652;49.040;12.126;2024-03-07T11:52:35;97845.69;;;6.79;70.04
58875;BME280;44652;49.040;12.126;2024-03-07T11:55:03;97840.63;;;7.03;70.93
58875;BME280;44652;49.040;12.126;2024-03-07T11:57:31;97814.28;;;7.00;68.86
58875;BME280;44652;49.040;12.126;2024-03-07T12:00:02;97838.41;;;7.13;70.05
58875;BME280;44652;49.040;12.126;2024-03-07T12:02:38;97844.03;;;7.01;68.21
58875;BME280;44652;49.040;12.126;2024-03-07T12:05:06;97842.44;;;7.25;68.79
58875;BME280;44652;49.040;12.126;2024-03-07T12:07:33;97837.97;;;7.65;67.25
58875;BME280;44652;49.040;12.126;2024-03-07T12:10:02;97833.75;;;8.12;65.62
58875;BME280;44652;49.040;12.126;2024-03-07T12:12:32;97812.50;;;8.05;65.39
58875;BME280;44652;49.040;12.126;2024-03-07T12:15:00;97817.97;;;7.67;65.10
58875;BME280;44652;49.040;12.126;2024-03-07T12:17:31;97833.59;;;7.86;64.80
58875;BME280;44652;49.040;12.126;2024-03-07T12:19:58;97831.88;;;8.09;65.23
58875;BME280;44652;49.040;12.126;2024-03-07T12:22:29;97809.63;;;7.77;65.62
58875;BME280;44652;49.040;12.126;2024-03-07T12:25:01;97828.31;;;7.64;66.50
58875;BME280;44652;49.040;12.126;2024-03-07T12:27:29;97829.72;;;7.35;67.51
58875;BME280;44652;49.040;12.126;2024-03-07T12:29:56;97807.16;;;7.17;67.63
58875;BME280;44652;49.040;12.126;2024-03-07T12:32:23;97810.16;;;7.05;67.68
58875;BME280;44652;49.040;12.126;2024-03-07T12:34:52;97799.09;;;7.13;67.98
58875;BME280;44652;49.040;12.126;2024-03-07T12:37:19;97797.03;;;6.65;67.97
58875;BME280;44652;49.040;12.126;2024-03-07T12:39:53;97798.75;;;6.65;69.49
58875;BME280;44652;49.040;12.126;2024-03-07T12:42:28;97821.69;;;6.31;69.75
58875;BME280;44652;49.040;12.126;2024-03-07T12:44:58;97817.09;;;6.65;69.22
58875;BME280;44652;49.040;12.126;2024-03-07T12:47:26;97814.28;;;7.00;69.51
58875;BME280;44652;49.040;12.126;2024-03-07T12:49:53;97817.69;;;6.98;69.02
58875;BME280;44652;49.040;12.126;2024-03-07T12:52:20;97811.72;;;6.62;69.25
58875;BME280;44652;49.040;12.126;2024-03-07T12:54:46;97816.00;;;6.79;69.25
58875;BME280;44652;49.040;12.126;2024-03-07T12:57:14;97806.78;;;6.48;69.83
58875;BME280;44652;49.040;12.126;2024-03-07T12:59:41;97799.72;;;6.47;70.25
58875;BME280;44652;49.040;12.126;2024-03-07T13:02:09;97814.34;;;6.42;69.69
58875;BME280;44652;49.040;12.126;2024-03-07T13:04:37;97815.38;;;6.65;70.10
58875;BME280;44652;49.040;12.126;2024-03-07T13:07:10;97815.16;;;6.41;69.76
58875;BME280;44652;49.040;12.126;2024-03-07T13:09:36;97799.88;;;6.31;70.46
58875;BME280;44652;49.040;12.126;2024-03-07T13:12:10;97790.56;;;6.38;70.28
58875;BME280;44652;49.040;12.126;2024-03-07T13:14:37;97805.94;;;6.49;70.81
58875;BME280;44652;49.040;12.126;2024-03-07T13:17:04;97822.38;;;6.27;70.85
58875;BME280;44652;49.040;12.126;2024-03-07T13:19:32;97810.00;;;6.43;71.32
58875;BME280;44652;49.040;12.126;2024-03-07T13:21:59;97789.34;;;6.49;70.27
58875;BME280;44652;49.040;12.126;2024-03-07T13:24:27;97795.13;;;6.61;70.21
58875;BME280;44652;49.040;12.126;2024-03-07T13:26:54;97801.53;;;6.68;70.38
58875;BME280;44652;49.040;12.126;2024-03-07T13:29:21;97821.09;;;6.76;71.47
58875;BME280;44652;49.040;12.126;2024-03-07T13:31:52;97800.88;;;6.73;69.89
58875;BME280;44652;49.040;12.126;2024-03-07T13:34:21;97819.66;;;6.63;69.01
58875;BME280;44652;49.040;12.126;2024-03-07T13:36:48;97802.69;;;6.74;68.46
58875;BME280;44652;49.040;12.126;2024-03-07T13:39:15;97790.81;;;6.82;68.04
58875;BME280;44652;49.040;12.126;2024-03-07T13:41:43;97815.38;;;6.65;69.48
58875;BME280;44652;49.040;12.126;2024-03-07T13:44:11;97811.81;;;6.63;69.54
58875;BME280;44652;49.040;12.126;2024-03-07T13:46:40;97809.78;;;6.77;70.22
58875;BME280;44652;49.040;12.126;2024-03-07T13:49:07;97809.03;;;6.41;69.54
58875;BME280;44652;49.040;12.126;2024-03-07T13:51:40;97787.06;;;6.56;69.60
58875;BME280;44652;49.040;12.126;2024-03-07T13:54:17;97814.19;;;6.58;68.87
58875;BME280;44652;49.040;12.126;2024-03-07T13:57:29;97819.69;;;6.84;68.98
58875;BME280;44652;49.040;12.126;2024-03-07T14:00:20;97812.41;;;6.57;68.67
58875;BME280;44652;49.040;12.126;2024-03-07T14:03:50;97810.28;;;6.68;67.58
58875;BME280;44652;49.040;12.126;2024-03-07T14:08:56;97808.81;;;6.75;67.76
58875;BME280;44652;49.040;12.126;2024-03-07T14:29:03;97798.44;;;6.00;70.98
58875;BME280;44652;49.040;12.126;2024-03-07T14:31:32;97803.53;;;5.79;71.04
58875;BME280;44652;49.040;12.126;2024-03-07T14:37:22;97789.97;;;5.69;71.21
58875;BME280;44652;49.040;12.126;2024-03-07T14:39:51;97787.28;;;5.86;69.86
58875;BME280;44652;49.040;12.126;2024-03-07T14:42:19;97785.94;;;5.57;70.46
58875;BME280;44652;49.040;12.126;2024-03-07T14:44:46;97806.06;;;5.78;70.98
58875;BME280;44652;49.040;12.126;2024-03-07T14:47:19;97806.84;;;5.57;71.72
58875;BME280;44652;49.040;12.126;2024-03-07T14:49:46;97800.16;;;5.64;71.03
58875;BME280;44652;49.040;12.126;2024-03-07T14:52:13;97780.75;;;5.41;71.77
58875;BME280;44652;49.040;12.126;2024-03-07T14:54:42;97797.50;;;5.45;71.71
58875;BME280;44652;49.040;12.126;2024-03-07T14:57:09;97785.78;;;5.54;71.71
58875;BME280;44652;49.040;12.126;2024-03-07T14:59:39;97803.72;;;5.65;72.48
58875;BME280;44652;49.040;12.126;2024-03-07T15:02:08;97780.69;;;5.40;73.09
58875;BME280;44652;49.040;12.126;2024-03-07T15:04:37;97784.50;;;5.46;73.57
58875;BME280;44652;49.040;12.126;2024-03-07T15:07:06;97788.13;;;5.68;72.75
58875;BME280;44652;49.040;12.126;2024-03-07T15:09:36;97802.81;;;5.46;73.66
58875;BME280;44652;49.040;12.126;2024-03-07T15:12:04;97802.72;;;5.45;73.77
58875;BME280;44652;49.040;12.126;2024-03-07T15:14:33;97789.81;;;5.48;73.84
58875;BME280;44652;49.040;12.126;2024-03-07T15:17:06;97805.09;;;5.40;73.69
58875;BME280;44652;49.040;12.126;2024-03-07T15:19:33;97798.69;;;5.33;73.78
58875;BME280;44652;49.040;12.126;2024-03-07T15:22:01;97789.59;;;5.61;73.46
58875;BME280;44652;49.040;12.126;2024-03-07T15:24:30;97782.09;;;5.33;74.56
58875;BME280;44652;49.040;12.126;2024-03-07T15:26:57;97784.03;;;5.37;74.65
58875;BME280;44652;49.040;12.126;2024-03-07T15:29:24;97780.25;;;5.30;74.67
58875;BME280;44652;49.040;12.126;2024-03-07T15:31:51;97777.78;;;5.16;74.54
58875;BME280;44652;49.040;12.126;2024-03-07T15:34:18;97788.97;;;5.13;76.16
58875;BME280;44652;49.040;12.126;2024-03-07T15:36:46;97799.13;;;5.25;74.82
58875;BME280;44652;49.040;12.126;2024-03-07T15:39:23;97775.31;;;5.01;75.78
58875;BME280;44652;49.040;12.126;2024-03-07T15:41:56;97805.69;;;5.17;75.88
58875;BME280;44652;49.040;12.126;2024-03-07T15:44:23;97803.22;;;5.37;75.15
58875;BME280;44652;49.040;12.126;2024-03-07T15:46:52;97805.94;;;5.57;74.74
58875;BME280;44652;49.040;12.126;2024-03-07T15:49:18;97803.47;;;5.42;76.19
58875;BME280;44652;49.040;12.126;2024-03-07T15:51:45;97787.94;;;5.45;75.95
58875;BME280;44652;49.040;12.126;2024-03-07T15:54:12;97777.19;;;5.39;75.27
58875;BME280;44652;49.040;12.126;2024-03-07T15:56:44;97776.22;;;5.19;76.03
58875;BME280;44652;49.040;12.126;2024-03-07T15:59:11;97793.31;;;5.48;75.45
58875;BME280;44652;49.040;12.126;2024-03-07T16:01:38;97791.16;;;5.40;75.81
58875;BME280;44652;49.040;12.126;2024-03-07T16:04:04;97785.22;;;5.26;75.33
58875;BME280;44652;49.040;12.126;2024-03-07T16:06:33;97779.13;;;5.25;76.16
58875;BME280;44652;49.040;12.126;2024-03-07T16:09:00;97742.22;;;4.83;75.17
58875;BME280;44652;49.040;12.126;2024-03-07T16:11:27;97783.13;;;5.01;76.13
58875;BME280;44652;49.040;12.126;2024-03-07T16:13:53;97784.06;;;5.19;75.81
58875;BME280;44652;49.040;12.126;2024-03-07T16:16:20;97767.91;;;5.10;75.24
58875;BME280;44652;49.040;12.126;2024-03-07T16:18:47;97785.41;;;5.47;75.28
58875;BME280;44652;49.040;12.126;2024-03-07T16:21:14;97771.78;;;5.18;75.26
58875;BME280;44652;49.040;12.126;2024-03-07T16:23:41;97762.00;;;5.14;74.86
58875;BME280;44652;49.040;12.126;2024-03-07T16:26:08;97784.50;;;5.28;75.36
58875;BME280;44652;49.040;12.126;2024-03-07T16:28:34;97775.22;;;5.17;74.89
58875;BME280;44652;49.040;12.126;2024-03-07T16:31:01;97756.84;;;4.98;74.28
58875;BME280;44652;49.040;12.126;2024-03-07T16:33:32;97750.44;;;4.91;75.21
58875;BME280;44652;49.040;12.126;2024-03-07T16:36:00;97772.03;;;5.05;74.82
58875;BME280;44652;49.040;12.126;2024-03-07T16:38:27;97775.31;;;4.67;74.73
58875;BME280;44652;49.040;12.126;2024-03-07T16:40:54;97754.97;;;4.61;74.67
58875;BME280;44652;49.040;12.126;2024-03-07T16:43:21;97764.16;;;4.87;74.76
58875;BME280;44652;49.040;12.126;2024-03-07T16:45:51;97760.47;;;4.83;74.65
58875;BME280;44652;49.040;12.126;2024-03-07T16:48:20;97777.16;;;5.03;74.67
58875;BME280;44652;49.040;12.126;2024-03-07T16:50:47;97756.81;;;4.80;74.73
58875;BME280;44652;49.040;12.126;2024-03-07T16:53:14;97763.16;;;4.67;75.45
58875;BME280;44652;49.040;12.126;2024-03-07T16:55:42;97775.13;;;4.63;75.38
58875;BME280;44652;49.040;12.126;2024-03-07T16:58:14;97779.13;;;4.57;75.23
58875;BME280;44652;49.040;12.126;2024-03-07T17:00:42;97766.03;;;4.55;76.12
58875;BME280;44652;49.040;12.126;2024-03-07T17:03:11;97782.06;;;4.47;75.96
58875;BME280;44652;49.040;12.126;2024-03-07T17:05:40;97781.41;;;4.67;75.91
58875;BME280;44652;49.040;12.126;2024-03-07T17:08:12;97776.75;;;4.61;76.08
58875;BME280;44652;49.040;12.126;2024-03-07T17:10:42;97761.22;;;4.30;76.42
58875;BME280;44652;49.040;12.126;2024-03-07T17:13:11;97751.50;;;4.28;76.29
58875;BME280;44652;49.040;12.126;2024-03-07T17:15:40;97785.69;;;4.32;76.72
58875;BME280;44652;49.040;12.126;2024-03-07T17:18:09;97763.34;;;4.37;76.24
58875;BME280;44652;49.040;12.126;2024-03-07T17:20:43;97772.28;;;4.43;76.22
58875;BME280;44652;49.040;12.126;2024-03-07T17:23:12;97763.84;;;4.30;76.56
58875;BME280;44652;49.040;12.126;2024-03-07T17:25:40;97791.63;;;4.46;76.91
58875;BME280;44652;49.040;12.126;2024-03-07T17:28:06;97764.81;;;4.32;76.66
58875;BME280;44652;49.040;12.126;2024-03-07T17:30:34;97789.03;;;4.30;76.97
58875;BME280;44652;49.040;12.126;2024-03-07T17:33:02;97796.69;;;4.10;77.61
58875;BME280;44652;49.040;12.126;2024-03-07T17:35:32;97777.56;;;3.79;77.57
58875;BME280;44652;49.040;12.126;2024-03-07T17:38:01;97793.00;;;3.90;78.29
58875;BME280;44652;49.040;12.126;2024-03-07T17:40:28;97779.31;;;3.63;78.57
58875;BME280;44652;49.040;12.126;2024-03-07T17:43:00;97780.56;;;3.70;79.14
58875;BME280;44652;49.040;12.126;2024-03-07T17:45:29;97794.34;;;3.68;78.85
58875;BME280;44652;49.040;12.126;2024-03-07T17:48:02;97815.72;;;3.93;78.32
58875;BME280;44652;49.040;12.126;2024-03-07T17:50:32;97797.81;;;3.99;78.95
58875;BME280;44652;49.040;12.126;2024-03-07T17:53:04;97777.19;;;3.87;78.44
58875;BME280;44652;49.040;12.126;2024-03-07T17:55:38;97783.06;;;3.83;77.96
58875;BME280;44652;49.040;12.126;2024-03-07T17:58:08;97790.06;;;4.01;78.21
58875;BME280;44652;49.040;12.126;2024-03-07T18:00:36;97792.59;;;3.83;78.44
58875;BME280;44652;49.040;12.126;2024-03-07T18:03:05;97789.09;;;3.99;78.72
58875;BME280;44652;49.040;12.126;2024-03-07T18:05:35;97800.19;;;4.27;78.01
58875;BME280;44652;49.040;12.126;2024-03-07T18:08:06;97779.47;;;3.98;77.69
58875;BME280;44652;49.040;12.126;2024-03-07T18:10:56;97803.09;;;3.84;78.80
58875;BME280;44652;49.040;12.126;2024-03-07T18:13:27;97810.84;;;3.99;78.28
58875;BME280;44652;49.040;12.126;2024-03-07T18:15:54;97798.75;;;3.85;78.94
58875;BME280;44652;49.040;12.126;2024-03-07T18:18:21;97791.47;;;3.94;79.04
58875;BME280;44652;49.040;12.126;2024-03-07T18:20:51;97799.47;;;3.82;79.01
58875;BME280;44652;49.040;12.126;2024-03-07T18:23:18;97786.13;;;3.76;79.37
58875;BME280;44652;49.040;12.126;2024-03-07T18:25:45;97796.94;;;3.68;79.95
58875;BME280;44652;49.040;12.126;2024-03-07T18:28:16;97805.81;;;3.71;79.88
58875;BME280;44652;49.040;12.126;2024-03-07T18:30:47;97803.38;;;3.74;79.99
58875;BME280;44652;49.040;12.126;2024-03-07T18:33:15;97805.25;;;3.77;80.63
58875;BME280;44652;49.040;12.126;2024-03-07T18:35:44;97782.25;;;3.53;80.46
58875;BME280;44652;49.040;12.126;2024-03-07T18:38:13;97788.75;;;3.45;80.15
58875;BME280;44652;49.040;12.126;2024-03-07T18:40:41;97792.88;;;3.41;81.68
58875;BME280;44652;49.040;12.126;2024-03-07T18:43:08;97800.59;;;3.71;81.22
58875;BME280;44652;49.040;12.126;2024-03-07T18:45:37;97794.47;;;3.39;81.34
58875;BME280;44652;49.040;12.126;2024-03-07T18:48:06;97785.28;;;3.15;82.01
58875;BME280;44652;49.040;12.126;2024-03-07T18:50:35;97789.59;;;3.14;82.66
58875;BME280;44652;49.040;12.126;2024-03-07T18:53:13;97801.03;;;3.33;82.83
58875;BME280;44652;49.040;12.126;2024-03-07T18:55:43;97790.81;;;3.21;82.73
58875;BME280;44652;49.040;12.126;2024-03-07T18:58:15;97791.63;;;3.35;82.60
58875;BME280;44652;49.040;12.126;2024-03-07T19:00:42;97794.88;;;3.31;82.43
58875;BME280;44652;49.040;12.126;2024-03-07T19:03:16;97778.06;;;3.26;82.75
58875;BME280;44652;49.040;12.126;2024-03-07T19:05:48;97795.50;;;3.41;83.00
58875;BME280;44652;49.040;12.126;2024-03-07T19:08:17;97777.16;;;3.40;82.68
58875;BME280;44652;49.040;12.126;2024-03-07T19:10:48;97787.13;;;3.32;81.92
58875;BME280;44652;49.040;12.126;2024-03-07T19:13:16;97791.66;;;3.05;82.78
58875;BME280;44652;49.040;12.126;2024-03-07T19:15:44;97779.88;;;3.27;83.30
58875;BME280;44652;49.040;12.126;2024-03-07T19:18:11;97778.81;;;3.08;83.58
58875;BME280;44652;49.040;12.126;2024-03-07T19:20:42;97779.88;;;3.27;83.45
58875;BME280;44652;49.040;12.126;2024-03-07T19:23:10;97775.78;;;3.01;84.12
58875;BME280;44652;49.040;12.126;2024-03-07T19:25:40;97765.25;;;2.99;84.31
58875;BME280;44652;49.040;12.126;2024-03-07T19:28:08;97763.72;;;3.03;83.45
58875;BME280;44652;49.040;12.126;2024-03-07T19:30:42;97779.63;;;3.22;82.84
58875;BME280;44652;49.040;12.126;2024-03-07T19:33:11;97780.78;;;3.27;83.25
58875;BME280;44652;49.040;12.126;2024-03-07T19:35:43;97765.09;;;2.96;83.64
58875;BME280;44652;49.040;12.126;2024-03-07T19:38:10;97782.97;;;2.90;84.50
58875;BME280;44652;49.040;12.126;2024-03-07T19:40:37;97793.09;;;2.85;83.86
58875;BME280;44652;49.040;12.126;2024-03-07T19:43:03;97785.03;;;2.81;84.15
58875;BME280;44652;49.040;12.126;2024-03-07T19:45:36;97780.63;;;2.80;84.51
58875;BME280;44652;49.040;12.126;2024-03-07T19:48:04;97779.53;;;2.76;84.49
58875;BME280;44652;49.040;12.126;2024-03-07T19:50:31;97789.50;;;2.68;84.79
58875;BME280;44652;49.040;12.126;2024-03-07T19:52:58;97782.44;;;2.66;85.16
58875;BME280;44652;49.040;12.126;2024-03-07T19:55:28;97762.50;;;2.66;84.19
58875;BME280;44652;49.040;12.126;2024-03-07T19:57:58;97780.34;;;2.60;84.85
58875;BME280;44652;49.040;12.126;2024-03-07T20:00:25;97755.13;;;2.44;84.69
58875;BME280;44652;49.040;12.126;2024-03-07T20:03:02;97762.13;;;2.60;84.95
58875;BME280;44652;49.040;12.126;2024-03-07T20:05:29;97768.06;;;2.43;85.43
58875;BME280;44652;49.040;12.126;2024-03-07T20:07:58;97781.66;;;2.54;85.79
58875;BME280;44652;49.040;12.126;2024-03-07T20:10:26;97780.72;;;2.66;84.71
58875;BME280;44652;49.040;12.126;2024-03-07T20:12:56;97766.16;;;2.55;84.88
58875;BME280;44652;49.040;12.126;2024-03-07T20:15:24;97770.72;;;2.44;84.46
58875;BME280;44652;49.040;12.126;2024-03-07T20:17:52;97777.56;;;2.57;84.30
58875;BME280;44652;49.040;12.126;2024-03-07T20:20:20;97776.06;;;2.18;85.79
58875;BME280;44652;49.040;12.126;2024-03-07T20:22:51;97753.31;;;2.29;86.12
58875;BME280;44652;49.040;12.126;2024-03-07T20:25:21;97748.47;;;2.35;85.04
58875;BME280;44652;49.040;12.126;2024-03-07T20:27:49;97773.72;;;2.51;84.94
58875;BME280;44652;49.040;12.126;2024-03-07T20:30:19;97759.13;;;2.25;85.41
58875;BME280;44652;49.040;12.126;2024-03-07T20:32:46;97756.63;;;2.26;85.85
58875;BME280;44652;49.040;12.126;2024-03-07T20:35:15;97776.75;;;2.43;86.21
58875;BME280;44652;49.040;12.126;2024-03-07T20:37:46;97750.59;;;2.27;86.07
58875;BME280;44652;49.040;12.126;2024-03-07T20:40:16;97750.06;;;2.18;86.10
58875;BME280;44652;49.040;12.126;2024-03-07T20:42:44;97777.88;;;2.34;86.13
58875;BME280;44652;49.040;12.126;2024-03-07T20:45:12;97776.38;;;2.37;85.93
58875;BME280;44652;49.040;12.126;2024-03-07T20:47:42;97758.88;;;2.20;85.25
58875;BME280;44652;49.040;12.126;2024-03-07T20:50:12;97765.16;;;2.24;85.69
58875;BME280;44652;49.040;12.126;2024-03-07T20:52:43;97765.16;;;2.24;86.11
58875;BME280;44652;49.040;12.126;2024-03-07T20:55:16;97778.44;;;2.28;86.73
58875;BME280;44652;49.040;12.126;2024-03-07T20:57:46;97752.84;;;2.21;85.74
58875;BME280;44652;49.040;12.126;2024-03-07T21:00:19;97766.81;;;2.23;85.25
58875;BME280;44652;49.040;12.126;2024-03-07T21:02:57;97751.56;;;2.14;85.51
58875;BME280;44652;49.040;12.126;2024-03-07T21:05:25;97754.19;;;2.14;86.37
58875;BME280;44652;49.040;12.126;2024-03-07T21:07:53;97772.50;;;2.31;86.09
58875;BME280;44652;49.040;12.126;2024-03-07T21:10:21;97755.34;;;2.05;85.85
58875;BME280;44652;49.040;12.126;2024-03-07T21:12:55;97758.34;;;1.98;86.65
58875;BME280;44652;49.040;12.126;2024-03-07T21:15:22;97767.88;;;2.12;87.09
58875;BME280;44652;49.040;12.126;2024-03-07T21:17:48;97774.41;;;2.05;87.82
58875;BME280;44652;49.040;12.126;2024-03-07T21:20:16;97774.94;;;2.00;86.95
58875;BME280;44652;49.040;12.126;2024-03-07T21:22:47;97758.38;;;1.84;87.92